<?xml version="1.0" encoding="UTF-8" standalone="no" ?>
<gpx xmlns="http://www.topografix.com/GPX/1/1" xmlns:xsi="http://www.w3.org/2001/XMLSchema-instance" xsi:schemaLocation="http://www.topografix.com/GPX/1/1 http://www.topografix.com/GPX/1/1/gpx.xsd" version="1.1" creator="VisuGPX - https://www.visugpx.com">
  <metadata>
    <name>160820 - Blainville</name>
    <desc><![CDATA[Circuit en handbike du 20 août 2016]]></desc>
  </metadata>
  <trk>
    <name><![CDATA[160820 - Blainville]]></name>
    <trkseg>
      <trkpt lat="49.32659" lon="-0.38063">
        <ele>6.39</ele>
        <time>2016-08-20T08:47:10Z</time>
      </trkpt>
      <trkpt lat="49.32661" lon="-0.37797">
        <ele>6.39</ele>
        <time>2016-08-20T08:49:15Z</time>
      </trkpt>
      <trkpt lat="49.32652" lon="-0.37771">
        <ele>4.46</ele>
        <time>2016-08-20T08:49:24Z</time>
      </trkpt>
      <trkpt lat="49.32616" lon="-0.37615">
        <ele>5.42</ele>
        <time>2016-08-20T08:49:48Z</time>
      </trkpt>
      <trkpt lat="49.3248" lon="-0.36921">
        <ele>6.39</ele>
        <time>2016-08-20T08:51:54Z</time>
      </trkpt>
      <trkpt lat="49.32461" lon="-0.36828">
        <ele>5.91</ele>
        <time>2016-08-20T08:52:05Z</time>
      </trkpt>
      <trkpt lat="49.32322" lon="-0.36366">
        <ele>6.87</ele>
        <time>2016-08-20T08:53:09Z</time>
      </trkpt>
      <trkpt lat="49.32301" lon="-0.36239">
        <ele>6.39</ele>
        <time>2016-08-20T08:53:23Z</time>
      </trkpt>
      <trkpt lat="49.32244" lon="-0.36077">
        <ele>4.94</ele>
        <time>2016-08-20T08:53:46Z</time>
      </trkpt>
      <trkpt lat="49.32187" lon="-0.35927">
        <ele>3.5</ele>
        <time>2016-08-20T08:54:10Z</time>
      </trkpt>
      <trkpt lat="49.32182" lon="-0.3588">
        <ele>3.98</ele>
        <time>2016-08-20T08:54:26Z</time>
      </trkpt>
      <trkpt lat="49.32188" lon="-0.35831">
        <ele>3.98</ele>
        <time>2016-08-20T08:54:44Z</time>
      </trkpt>
      <trkpt lat="49.32178" lon="-0.35794">
        <ele>1.58</ele>
        <time>2016-08-20T08:54:56Z</time>
      </trkpt>
      <trkpt lat="49.32174" lon="-0.35785">
        <ele>3.02</ele>
        <time>2016-08-20T08:55:00Z</time>
      </trkpt>
      <trkpt lat="49.32145" lon="-0.35709">
        <ele>3.5</ele>
        <time>2016-08-20T08:55:22Z</time>
      </trkpt>
      <trkpt lat="49.32104" lon="-0.35614">
        <ele>3.5</ele>
        <time>2016-08-20T08:55:50Z</time>
      </trkpt>
      <trkpt lat="49.3208" lon="-0.35551">
        <ele>3.02</ele>
        <time>2016-08-20T08:56:12Z</time>
      </trkpt>
      <trkpt lat="49.32051" lon="-0.35482">
        <ele>3.02</ele>
        <time>2016-08-20T08:56:36Z</time>
      </trkpt>
      <trkpt lat="49.32026" lon="-0.35429">
        <ele>3.02</ele>
        <time>2016-08-20T08:56:58Z</time>
      </trkpt>
      <trkpt lat="49.31994" lon="-0.35358">
        <ele>3.02</ele>
        <time>2016-08-20T08:57:21Z</time>
      </trkpt>
      <trkpt lat="49.31972" lon="-0.35297">
        <ele>3.02</ele>
        <time>2016-08-20T08:57:38Z</time>
      </trkpt>
      <trkpt lat="49.3194" lon="-0.35212">
        <ele>2.54</ele>
        <time>2016-08-20T08:58:02Z</time>
      </trkpt>
      <trkpt lat="49.31917" lon="-0.35157">
        <ele>2.06</ele>
        <time>2016-08-20T08:58:21Z</time>
      </trkpt>
      <trkpt lat="49.31898" lon="-0.35123">
        <ele>2.06</ele>
        <time>2016-08-20T08:58:42Z</time>
      </trkpt>
      <trkpt lat="49.31874" lon="-0.35061">
        <ele>2.54</ele>
        <time>2016-08-20T08:58:59Z</time>
      </trkpt>
      <trkpt lat="49.31847" lon="-0.34991">
        <ele>3.02</ele>
        <time>2016-08-20T08:59:20Z</time>
      </trkpt>
      <trkpt lat="49.31819" lon="-0.34925">
        <ele>2.54</ele>
        <time>2016-08-20T08:59:42Z</time>
      </trkpt>
      <trkpt lat="49.31784" lon="-0.34858">
        <ele>3.5</ele>
        <time>2016-08-20T09:00:18Z</time>
      </trkpt>
      <trkpt lat="49.31778" lon="-0.34859">
        <ele>3.5</ele>
        <time>2016-08-20T09:00:21Z</time>
      </trkpt>
      <trkpt lat="49.3178" lon="-0.34832">
        <ele>2.54</ele>
        <time>2016-08-20T09:00:29Z</time>
      </trkpt>
      <trkpt lat="49.31758" lon="-0.34755">
        <ele>2.06</ele>
        <time>2016-08-20T09:00:47Z</time>
      </trkpt>
      <trkpt lat="49.31721" lon="-0.34634">
        <ele>2.06</ele>
        <time>2016-08-20T09:01:25Z</time>
      </trkpt>
      <trkpt lat="49.31664" lon="-0.34479">
        <ele>2.06</ele>
        <time>2016-08-20T09:02:04Z</time>
      </trkpt>
      <trkpt lat="49.31649" lon="-0.34445">
        <ele>2.54</ele>
        <time>2016-08-20T09:02:20Z</time>
      </trkpt>
      <trkpt lat="49.3158" lon="-0.34312">
        <ele>2.06</ele>
        <time>2016-08-20T09:03:09Z</time>
      </trkpt>
      <trkpt lat="49.31537" lon="-0.34253">
        <ele>3.02</ele>
        <time>2016-08-20T09:03:31Z</time>
      </trkpt>
      <trkpt lat="49.31508" lon="-0.34212">
        <ele>3.02</ele>
        <time>2016-08-20T09:03:52Z</time>
      </trkpt>
      <trkpt lat="49.31499" lon="-0.34211">
        <ele>2.54</ele>
        <time>2016-08-20T09:04:06Z</time>
      </trkpt>
      <trkpt lat="49.3141" lon="-0.34293">
        <ele>7.35</ele>
        <time>2016-08-20T09:04:55Z</time>
      </trkpt>
      <trkpt lat="49.31349" lon="-0.34147">
        <ele>5.42</ele>
        <time>2016-08-20T09:05:15Z</time>
      </trkpt>
      <trkpt lat="49.31337" lon="-0.34119">
        <ele>5.91</ele>
        <time>2016-08-20T09:05:20Z</time>
      </trkpt>
      <trkpt lat="49.31291" lon="-0.3401">
        <ele>6.87</ele>
        <time>2016-08-20T09:05:37Z</time>
      </trkpt>
      <trkpt lat="49.31249" lon="-0.33898">
        <ele>8.31</ele>
        <time>2016-08-20T09:05:53Z</time>
      </trkpt>
      <trkpt lat="49.31218" lon="-0.33818">
        <ele>7.83</ele>
        <time>2016-08-20T09:06:03Z</time>
      </trkpt>
      <trkpt lat="49.3115" lon="-0.33654">
        <ele>8.79</ele>
        <time>2016-08-20T09:06:26Z</time>
      </trkpt>
      <trkpt lat="49.31113" lon="-0.33563">
        <ele>8.31</ele>
        <time>2016-08-20T09:06:43Z</time>
      </trkpt>
      <trkpt lat="49.31063" lon="-0.33439">
        <ele>9.27</ele>
        <time>2016-08-20T09:07:00Z</time>
      </trkpt>
      <trkpt lat="49.30852" lon="-0.3294">
        <ele>9.27</ele>
        <time>2016-08-20T09:08:13Z</time>
      </trkpt>
      <trkpt lat="49.30816" lon="-0.32872">
        <ele>8.31</ele>
        <time>2016-08-20T09:08:28Z</time>
      </trkpt>
      <trkpt lat="49.3076" lon="-0.32762">
        <ele>7.83</ele>
        <time>2016-08-20T09:08:51Z</time>
      </trkpt>
      <trkpt lat="49.30716" lon="-0.32675">
        <ele>7.35</ele>
        <time>2016-08-20T09:09:10Z</time>
      </trkpt>
      <trkpt lat="49.30655" lon="-0.32549">
        <ele>5.91</ele>
        <time>2016-08-20T09:09:29Z</time>
      </trkpt>
      <trkpt lat="49.30616" lon="-0.3249">
        <ele>5.42</ele>
        <time>2016-08-20T09:09:44Z</time>
      </trkpt>
      <trkpt lat="49.30585" lon="-0.32444">
        <ele>5.42</ele>
        <time>2016-08-20T09:10:00Z</time>
      </trkpt>
      <trkpt lat="49.30583" lon="-0.32428">
        <ele>5.42</ele>
        <time>2016-08-20T09:10:04Z</time>
      </trkpt>
      <trkpt lat="49.30588" lon="-0.32366">
        <ele>5.91</ele>
        <time>2016-08-20T09:10:22Z</time>
      </trkpt>
      <trkpt lat="49.30633" lon="-0.32329">
        <ele>4.46</ele>
        <time>2016-08-20T09:10:46Z</time>
      </trkpt>
      <trkpt lat="49.30635" lon="-0.3229">
        <ele>3.98</ele>
        <time>2016-08-20T09:10:54Z</time>
      </trkpt>
      <trkpt lat="49.30614" lon="-0.32204">
        <ele>3.98</ele>
        <time>2016-08-20T09:11:14Z</time>
      </trkpt>
      <trkpt lat="49.30595" lon="-0.32161">
        <ele>4.46</ele>
        <time>2016-08-20T09:11:34Z</time>
      </trkpt>
      <trkpt lat="49.30584" lon="-0.32137">
        <ele>4.94</ele>
        <time>2016-08-20T09:11:50Z</time>
      </trkpt>
      <trkpt lat="49.30571" lon="-0.32108">
        <ele>4.94</ele>
        <time>2016-08-20T09:12:14Z</time>
      </trkpt>
      <trkpt lat="49.30526" lon="-0.32016">
        <ele>5.42</ele>
        <time>2016-08-20T09:12:42Z</time>
      </trkpt>
      <trkpt lat="49.30526" lon="-0.32007">
        <ele>5.91</ele>
        <time>2016-08-20T09:12:44Z</time>
      </trkpt>
      <trkpt lat="49.30515" lon="-0.3199">
        <ele>6.39</ele>
        <time>2016-08-20T09:13:34Z</time>
      </trkpt>
      <trkpt lat="49.30491" lon="-0.31926">
        <ele>5.91</ele>
        <time>2016-08-20T09:13:55Z</time>
      </trkpt>
      <trkpt lat="49.30469" lon="-0.31888">
        <ele>6.39</ele>
        <time>2016-08-20T09:14:22Z</time>
      </trkpt>
      <trkpt lat="49.30418" lon="-0.31812">
        <ele>6.39</ele>
        <time>2016-08-20T09:14:47Z</time>
      </trkpt>
      <trkpt lat="49.30344" lon="-0.31694">
        <ele>4.94</ele>
        <time>2016-08-20T09:15:37Z</time>
      </trkpt>
      <trkpt lat="49.30254" lon="-0.3146">
        <ele>3.5</ele>
        <time>2016-08-20T09:17:36Z</time>
      </trkpt>
      <trkpt lat="49.3023" lon="-0.3139">
        <ele>3.02</ele>
        <time>2016-08-20T09:17:56Z</time>
      </trkpt>
      <trkpt lat="49.30145" lon="-0.31173">
        <ele>3.98</ele>
        <time>2016-08-20T09:19:35Z</time>
      </trkpt>
      <trkpt lat="49.30119" lon="-0.3111">
        <ele>4.46</ele>
        <time>2016-08-20T09:19:54Z</time>
      </trkpt>
      <trkpt lat="49.30091" lon="-0.31039">
        <ele>4.94</ele>
        <time>2016-08-20T09:20:15Z</time>
      </trkpt>
      <trkpt lat="49.30031" lon="-0.30858">
        <ele>3.5</ele>
        <time>2016-08-20T09:22:44Z</time>
      </trkpt>
      <trkpt lat="49.29772" lon="-0.30053">
        <ele>3.5</ele>
        <time>2016-08-20T09:26:00Z</time>
      </trkpt>
      <trkpt lat="49.29746" lon="-0.29949">
        <ele>3.5</ele>
        <time>2016-08-20T09:26:32Z</time>
      </trkpt>
      <trkpt lat="49.29728" lon="-0.29854">
        <ele>3.98</ele>
        <time>2016-08-20T09:27:07Z</time>
      </trkpt>
      <trkpt lat="49.29698" lon="-0.29742">
        <ele>3.5</ele>
        <time>2016-08-20T09:27:39Z</time>
      </trkpt>
      <trkpt lat="49.29685" lon="-0.29718">
        <ele>3.5</ele>
        <time>2016-08-20T09:27:47Z</time>
      </trkpt>
      <trkpt lat="49.29655" lon="-0.29608">
        <ele>3.5</ele>
        <time>2016-08-20T09:28:11Z</time>
      </trkpt>
      <trkpt lat="49.29599" lon="-0.29388">
        <ele>3.5</ele>
        <time>2016-08-20T09:29:04Z</time>
      </trkpt>
      <trkpt lat="49.29592" lon="-0.29375">
        <ele>3.98</ele>
        <time>2016-08-20T09:29:24Z</time>
      </trkpt>
      <trkpt lat="49.29518" lon="-0.29151">
        <ele>3.98</ele>
        <time>2016-08-20T09:30:31Z</time>
      </trkpt>
      <trkpt lat="49.29516" lon="-0.29146">
        <ele>3.98</ele>
        <time>2016-08-20T09:30:32Z</time>
      </trkpt>
      <trkpt lat="49.29482" lon="-0.29037">
        <ele>3.5</ele>
        <time>2016-08-20T09:31:11Z</time>
      </trkpt>
      <trkpt lat="49.29465" lon="-0.28967">
        <ele>4.46</ele>
        <time>2016-08-20T09:31:36Z</time>
      </trkpt>
      <trkpt lat="49.29459" lon="-0.28885">
        <ele>3.5</ele>
        <time>2016-08-20T09:31:57Z</time>
      </trkpt>
      <trkpt lat="49.2946" lon="-0.28881">
        <ele>4.46</ele>
        <time>2016-08-20T09:31:59Z</time>
      </trkpt>
      <trkpt lat="49.29453" lon="-0.28851">
        <ele>3.98</ele>
        <time>2016-08-20T09:32:10Z</time>
      </trkpt>
      <trkpt lat="49.29446" lon="-0.2878">
        <ele>4.46</ele>
        <time>2016-08-20T09:32:32Z</time>
      </trkpt>
      <trkpt lat="49.29445" lon="-0.28762">
        <ele>3.98</ele>
        <time>2016-08-20T09:32:42Z</time>
      </trkpt>
      <trkpt lat="49.29414" lon="-0.28627">
        <ele>4.46</ele>
        <time>2016-08-20T09:32:58Z</time>
      </trkpt>
      <trkpt lat="49.29374" lon="-0.28445">
        <ele>4.46</ele>
        <time>2016-08-20T09:33:23Z</time>
      </trkpt>
      <trkpt lat="49.29363" lon="-0.28399">
        <ele>3.98</ele>
        <time>2016-08-20T09:33:36Z</time>
      </trkpt>
      <trkpt lat="49.29345" lon="-0.28327">
        <ele>4.94</ele>
        <time>2016-08-20T09:33:52Z</time>
      </trkpt>
      <trkpt lat="49.29334" lon="-0.28296">
        <ele>4.46</ele>
        <time>2016-08-20T09:33:59Z</time>
      </trkpt>
      <trkpt lat="49.2933" lon="-0.2829">
        <ele>3.98</ele>
        <time>2016-08-20T09:34:01Z</time>
      </trkpt>
      <trkpt lat="49.29327" lon="-0.28272">
        <ele>3.98</ele>
        <time>2016-08-20T09:34:05Z</time>
      </trkpt>
      <trkpt lat="49.29315" lon="-0.28159">
        <ele>5.42</ele>
        <time>2016-08-20T09:34:23Z</time>
      </trkpt>
      <trkpt lat="49.29294" lon="-0.28052">
        <ele>3.98</ele>
        <time>2016-08-20T09:34:41Z</time>
      </trkpt>
      <trkpt lat="49.2928" lon="-0.27958">
        <ele>4.46</ele>
        <time>2016-08-20T09:34:54Z</time>
      </trkpt>
      <trkpt lat="49.2927" lon="-0.27919">
        <ele>3.98</ele>
        <time>2016-08-20T09:34:59Z</time>
      </trkpt>
      <trkpt lat="49.29268" lon="-0.27882">
        <ele>3.98</ele>
        <time>2016-08-20T09:35:04Z</time>
      </trkpt>
      <trkpt lat="49.29276" lon="-0.27831">
        <ele>3.98</ele>
        <time>2016-08-20T09:35:13Z</time>
      </trkpt>
      <trkpt lat="49.29263" lon="-0.27728">
        <ele>3.5</ele>
        <time>2016-08-20T09:35:28Z</time>
      </trkpt>
      <trkpt lat="49.2924" lon="-0.27575">
        <ele>4.46</ele>
        <time>2016-08-20T09:35:45Z</time>
      </trkpt>
      <trkpt lat="49.29218" lon="-0.27416">
        <ele>4.46</ele>
        <time>2016-08-20T09:36:08Z</time>
      </trkpt>
      <trkpt lat="49.29207" lon="-0.27334">
        <ele>4.46</ele>
        <time>2016-08-20T09:36:21Z</time>
      </trkpt>
      <trkpt lat="49.29185" lon="-0.2729">
        <ele>3.98</ele>
        <time>2016-08-20T09:36:31Z</time>
      </trkpt>
      <trkpt lat="49.29175" lon="-0.27202">
        <ele>3.98</ele>
        <time>2016-08-20T09:36:46Z</time>
      </trkpt>
      <trkpt lat="49.29179" lon="-0.27171">
        <ele>3.98</ele>
        <time>2016-08-20T09:36:54Z</time>
      </trkpt>
      <trkpt lat="49.29165" lon="-0.27048">
        <ele>3.5</ele>
        <time>2016-08-20T09:37:09Z</time>
      </trkpt>
      <trkpt lat="49.29152" lon="-0.2689">
        <ele>3.5</ele>
        <time>2016-08-20T09:37:29Z</time>
      </trkpt>
      <trkpt lat="49.29137" lon="-0.26739">
        <ele>3.98</ele>
        <time>2016-08-20T09:37:47Z</time>
      </trkpt>
      <trkpt lat="49.29131" lon="-0.26675">
        <ele>4.46</ele>
        <time>2016-08-20T09:37:55Z</time>
      </trkpt>
      <trkpt lat="49.29119" lon="-0.26625">
        <ele>4.46</ele>
        <time>2016-08-20T09:38:09Z</time>
      </trkpt>
      <trkpt lat="49.29082" lon="-0.26577">
        <ele>3.98</ele>
        <time>2016-08-20T09:38:24Z</time>
      </trkpt>
      <trkpt lat="49.29061" lon="-0.26465">
        <ele>4.46</ele>
        <time>2016-08-20T09:38:37Z</time>
      </trkpt>
      <trkpt lat="49.29039" lon="-0.26362">
        <ele>3.98</ele>
        <time>2016-08-20T09:38:53Z</time>
      </trkpt>
      <trkpt lat="49.29012" lon="-0.26218">
        <ele>2.06</ele>
        <time>2016-08-20T09:39:11Z</time>
      </trkpt>
      <trkpt lat="49.29015" lon="-0.26187">
        <ele>3.5</ele>
        <time>2016-08-20T09:39:15Z</time>
      </trkpt>
      <trkpt lat="49.29014" lon="-0.26158">
        <ele>3.98</ele>
        <time>2016-08-20T09:39:19Z</time>
      </trkpt>
      <trkpt lat="49.29" lon="-0.26051">
        <ele>3.98</ele>
        <time>2016-08-20T09:39:38Z</time>
      </trkpt>
      <trkpt lat="49.28989" lon="-0.26004">
        <ele>3.5</ele>
        <time>2016-08-20T09:39:50Z</time>
      </trkpt>
      <trkpt lat="49.28972" lon="-0.25909">
        <ele>3.5</ele>
        <time>2016-08-20T09:40:06Z</time>
      </trkpt>
      <trkpt lat="49.28932" lon="-0.25817">
        <ele>3.02</ele>
        <time>2016-08-20T09:40:28Z</time>
      </trkpt>
      <trkpt lat="49.28913" lon="-0.25745">
        <ele>3.98</ele>
        <time>2016-08-20T09:41:15Z</time>
      </trkpt>
      <trkpt lat="49.28907" lon="-0.25705">
        <ele>3.98</ele>
        <time>2016-08-20T09:41:39Z</time>
      </trkpt>
      <trkpt lat="49.28904" lon="-0.25645">
        <ele>4.46</ele>
        <time>2016-08-20T09:43:21Z</time>
      </trkpt>
      <trkpt lat="49.28894" lon="-0.25606">
        <ele>4.46</ele>
        <time>2016-08-20T09:43:41Z</time>
      </trkpt>
      <trkpt lat="49.28895" lon="-0.25557">
        <ele>3.98</ele>
        <time>2016-08-20T09:43:59Z</time>
      </trkpt>
      <trkpt lat="49.28906" lon="-0.25542">
        <ele>4.94</ele>
        <time>2016-08-20T09:44:15Z</time>
      </trkpt>
      <trkpt lat="49.28877" lon="-0.25527">
        <ele>5.42</ele>
        <time>2016-08-20T09:44:37Z</time>
      </trkpt>
      <trkpt lat="49.28864" lon="-0.25439">
        <ele>6.39</ele>
        <time>2016-08-20T09:45:07Z</time>
      </trkpt>
      <trkpt lat="49.2883" lon="-0.25143">
        <ele>6.39</ele>
        <time>2016-08-20T09:46:22Z</time>
      </trkpt>
      <trkpt lat="49.28792" lon="-0.25047">
        <ele>6.5</ele>
      </trkpt>
      <trkpt lat="49.28786" lon="-0.25029">
        <ele>6.3</ele>
      </trkpt>
      <trkpt lat="49.28773" lon="-0.25025">
        <ele>5.9</ele>
      </trkpt>
      <trkpt lat="49.28749" lon="-0.2504">
        <ele>5</ele>
      </trkpt>
      <trkpt lat="49.28709" lon="-0.24954">
        <ele>6</ele>
      </trkpt>
      <trkpt lat="49.28698" lon="-0.24953">
        <ele>6</ele>
      </trkpt>
      <trkpt lat="49.28694" lon="-0.24938">
        <ele>6</ele>
      </trkpt>
      <trkpt lat="49.28681" lon="-0.24934">
        <ele>6.3</ele>
      </trkpt>
      <trkpt lat="49.28549" lon="-0.24992">
        <ele>5.6</ele>
      </trkpt>
      <trkpt lat="49.28418" lon="-0.25028">
        <ele>6.9</ele>
      </trkpt>
      <trkpt lat="49.28389" lon="-0.25018">
        <ele>6.87</ele>
        <time>2016-08-20T09:48:19Z</time>
      </trkpt>
      <trkpt lat="49.28273" lon="-0.25047">
        <ele>6.87</ele>
        <time>2016-08-20T09:48:51Z</time>
      </trkpt>
      <trkpt lat="49.28267" lon="-0.25036">
        <ele>6.87</ele>
        <time>2016-08-20T09:49:00Z</time>
      </trkpt>
      <trkpt lat="49.28269" lon="-0.25021">
        <ele>6.39</ele>
        <time>2016-08-20T09:49:07Z</time>
      </trkpt>
      <trkpt lat="49.28265" lon="-0.25008">
        <ele>6.87</ele>
        <time>2016-08-20T09:49:10Z</time>
      </trkpt>
      <trkpt lat="49.28243" lon="-0.24961">
        <ele>7.35</ele>
        <time>2016-08-20T09:49:22Z</time>
      </trkpt>
      <trkpt lat="49.28232" lon="-0.24949">
        <ele>5.91</ele>
        <time>2016-08-20T09:49:40Z</time>
      </trkpt>
      <trkpt lat="49.28113" lon="-0.24968">
        <ele>5.42</ele>
        <time>2016-08-20T09:50:24Z</time>
      </trkpt>
      <trkpt lat="49.28052" lon="-0.24959">
        <ele>5.91</ele>
        <time>2016-08-20T09:50:45Z</time>
      </trkpt>
      <trkpt lat="49.2785" lon="-0.25001">
        <ele>6.39</ele>
        <time>2016-08-20T09:51:33Z</time>
      </trkpt>
      <trkpt lat="49.27822" lon="-0.25018">
        <ele>5.91</ele>
        <time>2016-08-20T09:51:50Z</time>
      </trkpt>
      <trkpt lat="49.27803" lon="-0.25023">
        <ele>6.39</ele>
        <time>2016-08-20T09:51:56Z</time>
      </trkpt>
      <trkpt lat="49.27745" lon="-0.25043">
        <ele>6.39</ele>
        <time>2016-08-20T09:52:06Z</time>
      </trkpt>
      <trkpt lat="49.27704" lon="-0.25055">
        <ele>5.91</ele>
        <time>2016-08-20T09:52:13Z</time>
      </trkpt>
      <trkpt lat="49.27561" lon="-0.25096">
        <ele>5.42</ele>
        <time>2016-08-20T09:52:37Z</time>
      </trkpt>
      <trkpt lat="49.27465" lon="-0.25125">
        <ele>7.35</ele>
        <time>2016-08-20T09:53:00Z</time>
      </trkpt>
      <trkpt lat="49.27412" lon="-0.25142">
        <ele>6.39</ele>
        <time>2016-08-20T09:53:43Z</time>
      </trkpt>
      <trkpt lat="49.27383" lon="-0.25146">
        <ele>6.87</ele>
        <time>2016-08-20T09:53:52Z</time>
      </trkpt>
      <trkpt lat="49.27263" lon="-0.25183">
        <ele>8.31</ele>
        <time>2016-08-20T09:54:24Z</time>
      </trkpt>
      <trkpt lat="49.27236" lon="-0.25225">
        <ele>7.35</ele>
        <time>2016-08-20T09:54:42Z</time>
      </trkpt>
      <trkpt lat="49.27182" lon="-0.25231">
        <ele>7.83</ele>
        <time>2016-08-20T09:54:59Z</time>
      </trkpt>
      <trkpt lat="49.27112" lon="-0.25241">
        <ele>6.39</ele>
        <time>2016-08-20T09:55:10Z</time>
      </trkpt>
      <trkpt lat="49.27074" lon="-0.25225">
        <ele>6.39</ele>
        <time>2016-08-20T09:55:21Z</time>
      </trkpt>
      <trkpt lat="49.27063" lon="-0.25226">
        <ele>6.39</ele>
        <time>2016-08-20T09:55:32Z</time>
      </trkpt>
      <trkpt lat="49.27053" lon="-0.25228">
        <ele>6.87</ele>
        <time>2016-08-20T09:55:38Z</time>
      </trkpt>
      <trkpt lat="49.27037" lon="-0.2523">
        <ele>6.39</ele>
        <time>2016-08-20T09:55:41Z</time>
      </trkpt>
      <trkpt lat="49.26895" lon="-0.2526">
        <ele>7.35</ele>
        <time>2016-08-20T09:56:02Z</time>
      </trkpt>
      <trkpt lat="49.26707" lon="-0.25307">
        <ele>6.87</ele>
        <time>2016-08-20T09:56:31Z</time>
      </trkpt>
      <trkpt lat="49.26531" lon="-0.25354">
        <ele>7.83</ele>
        <time>2016-08-20T09:56:59Z</time>
      </trkpt>
      <trkpt lat="49.26232" lon="-0.25496">
        <ele>7.35</ele>
        <time>2016-08-20T09:57:50Z</time>
      </trkpt>
      <trkpt lat="49.26124" lon="-0.25561">
        <ele>5.91</ele>
        <time>2016-08-20T09:58:09Z</time>
      </trkpt>
      <trkpt lat="49.2601" lon="-0.2563">
        <ele>6.39</ele>
        <time>2016-08-20T09:58:28Z</time>
      </trkpt>
      <trkpt lat="49.25962" lon="-0.25689">
        <ele>5.91</ele>
        <time>2016-08-20T09:58:39Z</time>
      </trkpt>
      <trkpt lat="49.25853" lon="-0.25798">
        <ele>5.91</ele>
        <time>2016-08-20T09:59:00Z</time>
      </trkpt>
      <trkpt lat="49.25786" lon="-0.25946">
        <ele>4.4</ele>
      </trkpt>
      <trkpt lat="49.25747" lon="-0.26033">
        <ele>4</ele>
      </trkpt>
      <trkpt lat="49.25671" lon="-0.2625">
        <ele>5.3</ele>
      </trkpt>
      <trkpt lat="49.25621" lon="-0.26366">
        <ele>4.8</ele>
      </trkpt>
      <trkpt lat="49.25501" lon="-0.2657">
        <ele>6.39</ele>
        <time>2016-08-20T10:00:46Z</time>
      </trkpt>
      <trkpt lat="49.25357" lon="-0.26704">
        <ele>5.91</ele>
        <time>2016-08-20T10:01:16Z</time>
      </trkpt>
      <trkpt lat="49.25192" lon="-0.26825">
        <ele>6.39</ele>
        <time>2016-08-20T10:01:49Z</time>
      </trkpt>
      <trkpt lat="49.25129" lon="-0.26875">
        <ele>6.39</ele>
        <time>2016-08-20T10:02:09Z</time>
      </trkpt>
      <trkpt lat="49.24955" lon="-0.27006">
        <ele>5.42</ele>
        <time>2016-08-20T10:02:41Z</time>
      </trkpt>
      <trkpt lat="49.24632" lon="-0.27242">
        <ele>6.39</ele>
        <time>2016-08-20T10:03:38Z</time>
      </trkpt>
      <trkpt lat="49.24494" lon="-0.27345">
        <ele>7.35</ele>
        <time>2016-08-20T10:04:04Z</time>
      </trkpt>
      <trkpt lat="49.24352" lon="-0.27438">
        <ele>8.31</ele>
        <time>2016-08-20T10:04:34Z</time>
      </trkpt>
      <trkpt lat="49.24334" lon="-0.27445">
        <ele>7.35</ele>
        <time>2016-08-20T10:04:38Z</time>
      </trkpt>
      <trkpt lat="49.24282" lon="-0.27462">
        <ele>7.35</ele>
        <time>2016-08-20T10:04:56Z</time>
      </trkpt>
      <trkpt lat="49.24252" lon="-0.27487">
        <ele>7.83</ele>
        <time>2016-08-20T10:07:01Z</time>
      </trkpt>
      <trkpt lat="49.24196" lon="-0.27536">
        <ele>6.87</ele>
        <time>2016-08-20T10:07:22Z</time>
      </trkpt>
      <trkpt lat="49.2409" lon="-0.27635">
        <ele>7.35</ele>
        <time>2016-08-20T10:07:47Z</time>
      </trkpt>
      <trkpt lat="49.24051" lon="-0.27667">
        <ele>6.39</ele>
        <time>2016-08-20T10:07:57Z</time>
      </trkpt>
      <trkpt lat="49.23937" lon="-0.27757">
        <ele>7.35</ele>
        <time>2016-08-20T10:08:20Z</time>
      </trkpt>
      <trkpt lat="49.2367" lon="-0.27958">
        <ele>8.31</ele>
        <time>2016-08-20T10:09:08Z</time>
      </trkpt>
      <trkpt lat="49.23639" lon="-0.27985">
        <ele>7.83</ele>
        <time>2016-08-20T10:09:14Z</time>
      </trkpt>
      <trkpt lat="49.23513" lon="-0.28115">
        <ele>8.31</ele>
        <time>2016-08-20T10:09:44Z</time>
      </trkpt>
      <trkpt lat="49.23401" lon="-0.28262">
        <ele>9.75</ele>
        <time>2016-08-20T10:10:12Z</time>
      </trkpt>
      <trkpt lat="49.23354" lon="-0.2834">
        <ele>9.27</ele>
        <time>2016-08-20T10:10:26Z</time>
      </trkpt>
      <trkpt lat="49.23204" lon="-0.28616">
        <ele>8.79</ele>
        <time>2016-08-20T10:11:07Z</time>
      </trkpt>
      <trkpt lat="49.2297" lon="-0.29142">
        <ele>13.6</ele>
        <time>2016-08-20T10:13:35Z</time>
      </trkpt>
      <trkpt lat="49.22977" lon="-0.2915">
        <ele>12.15</ele>
        <time>2016-08-20T10:13:37Z</time>
      </trkpt>
      <trkpt lat="49.22986" lon="-0.29162">
        <ele>13.6</ele>
        <time>2016-08-20T10:13:40Z</time>
      </trkpt>
      <trkpt lat="49.2306" lon="-0.29293">
        <ele>13.6</ele>
        <time>2016-08-20T10:14:00Z</time>
      </trkpt>
      <trkpt lat="49.23133" lon="-0.29313">
        <ele>14.08</ele>
        <time>2016-08-20T10:14:15Z</time>
      </trkpt>
      <trkpt lat="49.23148" lon="-0.29332">
        <ele>14.56</ele>
        <time>2016-08-20T10:14:20Z</time>
      </trkpt>
      <trkpt lat="49.23153" lon="-0.29363">
        <ele>14.08</ele>
        <time>2016-08-20T10:14:27Z</time>
      </trkpt>
      <trkpt lat="49.23128" lon="-0.29397">
        <ele>13.6</ele>
        <time>2016-08-20T10:14:35Z</time>
      </trkpt>
      <trkpt lat="49.23082" lon="-0.29528">
        <ele>15.04</ele>
        <time>2016-08-20T10:14:57Z</time>
      </trkpt>
      <trkpt lat="49.23063" lon="-0.29562">
        <ele>15.52</ele>
        <time>2016-08-20T10:15:03Z</time>
      </trkpt>
      <trkpt lat="49.23044" lon="-0.29588">
        <ele>15.52</ele>
        <time>2016-08-20T10:15:08Z</time>
      </trkpt>
      <trkpt lat="49.23027" lon="-0.30344">
        <ele>22.73</ele>
        <time>2016-08-20T10:17:22Z</time>
      </trkpt>
      <trkpt lat="49.23083" lon="-0.30415">
        <ele>24.65</ele>
        <time>2016-08-20T10:17:39Z</time>
      </trkpt>
      <trkpt lat="49.23136" lon="-0.30608">
        <ele>25.61</ele>
        <time>2016-08-20T10:18:11Z</time>
      </trkpt>
      <trkpt lat="49.23181" lon="-0.30718">
        <ele>26.09</ele>
        <time>2016-08-20T10:18:32Z</time>
      </trkpt>
      <trkpt lat="49.23263" lon="-0.3089">
        <ele>28.5</ele>
        <time>2016-08-20T10:19:03Z</time>
      </trkpt>
      <trkpt lat="49.23308" lon="-0.31009">
        <ele>29.94</ele>
        <time>2016-08-20T10:19:26Z</time>
      </trkpt>
      <trkpt lat="49.23332" lon="-0.31018">
        <ele>29.94</ele>
        <time>2016-08-20T10:19:35Z</time>
      </trkpt>
      <trkpt lat="49.23351" lon="-0.3098">
        <ele>29.94</ele>
        <time>2016-08-20T10:19:40Z</time>
      </trkpt>
      <trkpt lat="49.23365" lon="-0.30962">
        <ele>28.5</ele>
        <time>2016-08-20T10:19:43Z</time>
      </trkpt>
      <trkpt lat="49.23497" lon="-0.30921">
        <ele>28.02</ele>
        <time>2016-08-20T10:20:07Z</time>
      </trkpt>
      <trkpt lat="49.23556" lon="-0.3097">
        <ele>27.05</ele>
        <time>2016-08-20T10:20:20Z</time>
      </trkpt>
      <trkpt lat="49.23572" lon="-0.31015">
        <ele>25.61</ele>
        <time>2016-08-20T10:20:25Z</time>
      </trkpt>
      <trkpt lat="49.23655" lon="-0.31174">
        <ele>25.13</ele>
        <time>2016-08-20T10:20:48Z</time>
      </trkpt>
      <trkpt lat="49.23674" lon="-0.31211">
        <ele>25.61</ele>
        <time>2016-08-20T10:20:53Z</time>
      </trkpt>
      <trkpt lat="49.23731" lon="-0.31361">
        <ele>20.81</ele>
        <time>2016-08-20T10:21:08Z</time>
      </trkpt>
      <trkpt lat="49.2405" lon="-0.31938">
        <ele>23.69</ele>
        <time>2016-08-20T10:23:11Z</time>
      </trkpt>
      <trkpt lat="49.24072" lon="-0.31948">
        <ele>22.73</ele>
        <time>2016-08-20T10:23:24Z</time>
      </trkpt>
      <trkpt lat="49.24178" lon="-0.32082">
        <ele>22.73</ele>
        <time>2016-08-20T10:24:14Z</time>
      </trkpt>
      <trkpt lat="49.24214" lon="-0.32228">
        <ele>18.4</ele>
        <time>2016-08-20T10:24:46Z</time>
      </trkpt>
      <trkpt lat="49.24266" lon="-0.32423">
        <ele>13.12</ele>
        <time>2016-08-20T10:25:10Z</time>
      </trkpt>
      <trkpt lat="49.2429" lon="-0.32445">
        <ele>11.19</ele>
        <time>2016-08-20T10:25:15Z</time>
      </trkpt>
      <trkpt lat="49.24308" lon="-0.32485">
        <ele>10.71</ele>
        <time>2016-08-20T10:25:20Z</time>
      </trkpt>
      <trkpt lat="49.2424" lon="-0.32736">
        <ele>20.81</ele>
        <time>2016-08-20T10:26:12Z</time>
      </trkpt>
      <trkpt lat="49.2434" lon="-0.32885">
        <ele>19.84</ele>
        <time>2016-08-20T10:26:51Z</time>
      </trkpt>
      <trkpt lat="49.24397" lon="-0.32966">
        <ele>20.81</ele>
        <time>2016-08-20T10:27:09Z</time>
      </trkpt>
      <trkpt lat="49.24354" lon="-0.33213">
        <ele>20.81</ele>
        <time>2016-08-20T10:27:29Z</time>
      </trkpt>
      <trkpt lat="49.24373" lon="-0.33494">
        <ele>22.73</ele>
        <time>2016-08-20T10:28:01Z</time>
      </trkpt>
      <trkpt lat="49.24375" lon="-0.33666">
        <ele>24.65</ele>
        <time>2016-08-20T10:28:23Z</time>
      </trkpt>
      <trkpt lat="49.24369" lon="-0.339">
        <ele>24.17</ele>
        <time>2016-08-20T10:28:50Z</time>
      </trkpt>
      <trkpt lat="49.24331" lon="-0.34181">
        <ele>26.09</ele>
        <time>2016-08-20T10:29:23Z</time>
      </trkpt>
      <trkpt lat="49.24324" lon="-0.34389">
        <ele>28.5</ele>
        <time>2016-08-20T10:29:48Z</time>
      </trkpt>
      <trkpt lat="49.24373" lon="-0.34572">
        <ele>31.86</ele>
        <time>2016-08-20T10:30:13Z</time>
      </trkpt>
      <trkpt lat="49.2443" lon="-0.34798">
        <ele>34.26</ele>
        <time>2016-08-20T10:30:44Z</time>
      </trkpt>
      <trkpt lat="49.24478" lon="-0.35023">
        <ele>35.23</ele>
        <time>2016-08-20T10:31:13Z</time>
      </trkpt>
      <trkpt lat="49.24534" lon="-0.35217">
        <ele>33.3</ele>
        <time>2016-08-20T10:31:38Z</time>
      </trkpt>
      <trkpt lat="49.2454" lon="-0.3524">
        <ele>33.78</ele>
        <time>2016-08-20T10:31:41Z</time>
      </trkpt>
      <trkpt lat="49.24593" lon="-0.354">
        <ele>30.9</ele>
        <time>2016-08-20T10:32:02Z</time>
      </trkpt>
      <trkpt lat="49.246" lon="-0.35416">
        <ele>29.46</ele>
        <time>2016-08-20T10:32:04Z</time>
      </trkpt>
      <trkpt lat="49.24606" lon="-0.35432">
        <ele>30.9</ele>
        <time>2016-08-20T10:32:06Z</time>
      </trkpt>
      <trkpt lat="49.24636" lon="-0.35506">
        <ele>31.86</ele>
        <time>2016-08-20T10:32:15Z</time>
      </trkpt>
      <trkpt lat="49.24692" lon="-0.35638">
        <ele>35.71</ele>
        <time>2016-08-20T10:32:34Z</time>
      </trkpt>
      <trkpt lat="49.2475" lon="-0.35787">
        <ele>38.59</ele>
        <time>2016-08-20T10:32:56Z</time>
      </trkpt>
      <trkpt lat="49.24826" lon="-0.35973">
        <ele>41.47</ele>
        <time>2016-08-20T10:33:23Z</time>
      </trkpt>
      <trkpt lat="49.24945" lon="-0.36252">
        <ele>44.36</ele>
        <time>2016-08-20T10:34:06Z</time>
      </trkpt>
      <trkpt lat="49.25003" lon="-0.36352">
        <ele>43.4</ele>
        <time>2016-08-20T10:34:23Z</time>
      </trkpt>
      <trkpt lat="49.25387" lon="-0.36913">
        <ele>40.03</ele>
        <time>2016-08-20T10:36:25Z</time>
      </trkpt>
      <trkpt lat="49.25482" lon="-0.3703">
        <ele>36.67</ele>
        <time>2016-08-20T10:36:56Z</time>
      </trkpt>
      <trkpt lat="49.25542" lon="-0.37177">
        <ele>37.63</ele>
        <time>2016-08-20T10:37:23Z</time>
      </trkpt>
      <trkpt lat="49.25572" lon="-0.37215">
        <ele>38.11</ele>
        <time>2016-08-20T10:37:33Z</time>
      </trkpt>
      <trkpt lat="49.2557" lon="-0.37244">
        <ele>38.11</ele>
        <time>2016-08-20T10:38:29Z</time>
      </trkpt>
      <trkpt lat="49.25561" lon="-0.37338">
        <ele>44.2</ele>
      </trkpt>
      <trkpt lat="49.25696" lon="-0.37378">
        <ele>46</ele>
      </trkpt>
      <trkpt lat="49.25817" lon="-0.37416">
        <ele>47.4</ele>
      </trkpt>
      <trkpt lat="49.25911" lon="-0.37447">
        <ele>48</ele>
      </trkpt>
      <trkpt lat="49.26028" lon="-0.37477">
        <ele>51</ele>
      </trkpt>
      <trkpt lat="49.26451" lon="-0.376">
        <ele>51.3</ele>
      </trkpt>
      <trkpt lat="49.26778" lon="-0.37686">
        <ele>50</ele>
      </trkpt>
      <trkpt lat="49.26822" lon="-0.3769">
        <ele>50</ele>
      </trkpt>
      <trkpt lat="49.26928" lon="-0.37614">
        <ele>45.8</ele>
        <time>2016-08-20T10:43:08Z</time>
      </trkpt>
      <trkpt lat="49.26971" lon="-0.37628">
        <ele>44.36</ele>
        <time>2016-08-20T10:43:15Z</time>
      </trkpt>
      <trkpt lat="49.27484" lon="-0.37803">
        <ele>40.03</ele>
        <time>2016-08-20T10:44:44Z</time>
      </trkpt>
      <trkpt lat="49.27492" lon="-0.37802">
        <ele>40.99</ele>
        <time>2016-08-20T10:44:46Z</time>
      </trkpt>
      <trkpt lat="49.27496" lon="-0.37786">
        <ele>41.47</ele>
        <time>2016-08-20T10:44:50Z</time>
      </trkpt>
      <trkpt lat="49.27508" lon="-0.37768">
        <ele>42.44</ele>
        <time>2016-08-20T10:45:06Z</time>
      </trkpt>
      <trkpt lat="49.27508" lon="-0.37742">
        <ele>42.44</ele>
        <time>2016-08-20T10:45:11Z</time>
      </trkpt>
      <trkpt lat="49.27529" lon="-0.37596">
        <ele>44.84</ele>
        <time>2016-08-20T10:45:31Z</time>
      </trkpt>
      <trkpt lat="49.27538" lon="-0.37549">
        <ele>45.8</ele>
        <time>2016-08-20T10:45:38Z</time>
      </trkpt>
      <trkpt lat="49.27566" lon="-0.37376">
        <ele>49.16</ele>
        <time>2016-08-20T10:46:02Z</time>
      </trkpt>
      <trkpt lat="49.27587" lon="-0.3722">
        <ele>51.09</ele>
        <time>2016-08-20T10:46:22Z</time>
      </trkpt>
      <trkpt lat="49.2761" lon="-0.37016">
        <ele>51.57</ele>
        <time>2016-08-20T10:46:46Z</time>
      </trkpt>
      <trkpt lat="49.27636" lon="-0.36828">
        <ele>51.09</ele>
        <time>2016-08-20T10:47:08Z</time>
      </trkpt>
      <trkpt lat="49.27668" lon="-0.36589">
        <ele>49.65</ele>
        <time>2016-08-20T10:47:33Z</time>
      </trkpt>
      <trkpt lat="49.27708" lon="-0.36393">
        <ele>46.28</ele>
        <time>2016-08-20T10:47:54Z</time>
      </trkpt>
      <trkpt lat="49.27766" lon="-0.36162">
        <ele>43.4</ele>
        <time>2016-08-20T10:48:17Z</time>
      </trkpt>
      <trkpt lat="49.2778" lon="-0.36098">
        <ele>41.95</ele>
        <time>2016-08-20T10:48:28Z</time>
      </trkpt>
      <trkpt lat="49.27812" lon="-0.35985">
        <ele>38.59</ele>
        <time>2016-08-20T10:48:46Z</time>
      </trkpt>
      <trkpt lat="49.27806" lon="-0.35862">
        <ele>37.15</ele>
        <time>2016-08-20T10:49:00Z</time>
      </trkpt>
      <trkpt lat="49.28005" lon="-0.35642">
        <ele>28.98</ele>
        <time>2016-08-20T10:49:40Z</time>
      </trkpt>
      <trkpt lat="49.28018" lon="-0.35642">
        <ele>28.02</ele>
        <time>2016-08-20T10:49:43Z</time>
      </trkpt>
      <trkpt lat="49.28072" lon="-0.35611">
        <ele>27.05</ele>
        <time>2016-08-20T10:49:55Z</time>
      </trkpt>
      <trkpt lat="49.28202" lon="-0.35605">
        <ele>27.05</ele>
        <time>2016-08-20T10:50:16Z</time>
      </trkpt>
      <trkpt lat="49.28553" lon="-0.35592">
        <ele>25.13</ele>
        <time>2016-08-20T10:51:19Z</time>
      </trkpt>
      <trkpt lat="49.28585" lon="-0.35588">
        <ele>24.65</ele>
        <time>2016-08-20T10:51:25Z</time>
      </trkpt>
      <trkpt lat="49.28601" lon="-0.35588">
        <ele>25.13</ele>
        <time>2016-08-20T10:51:28Z</time>
      </trkpt>
      <trkpt lat="49.28611" lon="-0.3559">
        <ele>25.13</ele>
        <time>2016-08-20T10:51:30Z</time>
      </trkpt>
      <trkpt lat="49.28632" lon="-0.35633">
        <ele>22.73</ele>
        <time>2016-08-20T10:51:43Z</time>
      </trkpt>
      <trkpt lat="49.28648" lon="-0.3561">
        <ele>22.25</ele>
        <time>2016-08-20T10:51:49Z</time>
      </trkpt>
      <trkpt lat="49.28724" lon="-0.3554">
        <ele>21.77</ele>
        <time>2016-08-20T10:52:04Z</time>
      </trkpt>
      <trkpt lat="49.28822" lon="-0.35507">
        <ele>21.77</ele>
        <time>2016-08-20T10:52:20Z</time>
      </trkpt>
      <trkpt lat="49.28838" lon="-0.35504">
        <ele>21.29</ele>
        <time>2016-08-20T10:52:23Z</time>
      </trkpt>
      <trkpt lat="49.28873" lon="-0.35635">
        <ele>21.77</ele>
        <time>2016-08-20T10:52:41Z</time>
      </trkpt>
      <trkpt lat="49.28885" lon="-0.3568">
        <ele>21.29</ele>
        <time>2016-08-20T10:52:47Z</time>
      </trkpt>
      <trkpt lat="49.28894" lon="-0.357">
        <ele>21.29</ele>
        <time>2016-08-20T10:52:50Z</time>
      </trkpt>
      <trkpt lat="49.28946" lon="-0.35783">
        <ele>18.4</ele>
        <time>2016-08-20T10:53:06Z</time>
      </trkpt>
      <trkpt lat="49.29155" lon="-0.35849">
        <ele>22.25</ele>
        <time>2016-08-20T10:53:48Z</time>
      </trkpt>
      <trkpt lat="49.29238" lon="-0.35871">
        <ele>25.13</ele>
        <time>2016-08-20T10:54:10Z</time>
      </trkpt>
      <trkpt lat="49.29529" lon="-0.35939">
        <ele>26.09</ele>
        <time>2016-08-20T10:54:56Z</time>
      </trkpt>
      <trkpt lat="49.29663" lon="-0.35943">
        <ele>27.05</ele>
        <time>2016-08-20T10:55:18Z</time>
      </trkpt>
      <trkpt lat="49.29934" lon="-0.35817">
        <ele>25.13</ele>
        <time>2016-08-20T10:56:05Z</time>
      </trkpt>
      <trkpt lat="49.30076" lon="-0.35742">
        <ele>23.69</ele>
        <time>2016-08-20T10:56:30Z</time>
      </trkpt>
      <trkpt lat="49.30116" lon="-0.35717">
        <ele>23.21</ele>
        <time>2016-08-20T10:56:37Z</time>
      </trkpt>
      <trkpt lat="49.30189" lon="-0.35697">
        <ele>21.77</ele>
        <time>2016-08-20T10:56:49Z</time>
      </trkpt>
      <trkpt lat="49.30329" lon="-0.35658">
        <ele>19.36</ele>
        <time>2016-08-20T10:57:12Z</time>
      </trkpt>
      <trkpt lat="49.30344" lon="-0.35674">
        <ele>20.32</ele>
        <time>2016-08-20T10:57:17Z</time>
      </trkpt>
      <trkpt lat="49.30386" lon="-0.35834">
        <ele>18.88</ele>
        <time>2016-08-20T10:57:37Z</time>
      </trkpt>
      <trkpt lat="49.30439" lon="-0.36037">
        <ele>20.81</ele>
        <time>2016-08-20T10:58:04Z</time>
      </trkpt>
      <trkpt lat="49.30455" lon="-0.36102">
        <ele>19.36</ele>
        <time>2016-08-20T10:58:14Z</time>
      </trkpt>
      <trkpt lat="49.30467" lon="-0.3613">
        <ele>17.92</ele>
        <time>2016-08-20T10:58:18Z</time>
      </trkpt>
      <trkpt lat="49.30489" lon="-0.3616">
        <ele>17.92</ele>
        <time>2016-08-20T10:58:27Z</time>
      </trkpt>
      <trkpt lat="49.30545" lon="-0.36105">
        <ele>16.48</ele>
        <time>2016-08-20T10:58:51Z</time>
      </trkpt>
      <trkpt lat="49.30558" lon="-0.36125">
        <ele>16.96</ele>
        <time>2016-08-20T10:58:56Z</time>
      </trkpt>
      <trkpt lat="49.30615" lon="-0.36289">
        <ele>16.96</ele>
        <time>2016-08-20T10:59:23Z</time>
      </trkpt>
      <trkpt lat="49.30623" lon="-0.36316">
        <ele>16.96</ele>
        <time>2016-08-20T10:59:27Z</time>
      </trkpt>
      <trkpt lat="49.30666" lon="-0.3647">
        <ele>15.04</ele>
        <time>2016-08-20T10:59:49Z</time>
      </trkpt>
      <trkpt lat="49.30708" lon="-0.36458">
        <ele>16</ele>
        <time>2016-08-20T10:59:59Z</time>
      </trkpt>
      <trkpt lat="49.30879" lon="-0.36345">
        <ele>15.04</ele>
        <time>2016-08-20T11:00:28Z</time>
      </trkpt>
      <trkpt lat="49.3089" lon="-0.36338">
        <ele>15.52</ele>
        <time>2016-08-20T11:00:31Z</time>
      </trkpt>
      <trkpt lat="49.30943" lon="-0.36308">
        <ele>14.08</ele>
        <time>2016-08-20T11:00:47Z</time>
      </trkpt>
      <trkpt lat="49.31038" lon="-0.36231">
        <ele>12.15</ele>
        <time>2016-08-20T11:01:09Z</time>
      </trkpt>
      <trkpt lat="49.31082" lon="-0.36196">
        <ele>10.23</ele>
        <time>2016-08-20T11:01:18Z</time>
      </trkpt>
      <trkpt lat="49.31098" lon="-0.36187">
        <ele>10.23</ele>
        <time>2016-08-20T11:01:21Z</time>
      </trkpt>
      <trkpt lat="49.31196" lon="-0.36102">
        <ele>8.79</ele>
        <time>2016-08-20T11:01:44Z</time>
      </trkpt>
      <trkpt lat="49.31282" lon="-0.3634">
        <ele>3.98</ele>
        <time>2016-08-20T11:02:25Z</time>
      </trkpt>
      <trkpt lat="49.31293" lon="-0.36337">
        <ele>3.02</ele>
        <time>2016-08-20T11:02:31Z</time>
      </trkpt>
      <trkpt lat="49.31349" lon="-0.36418">
        <ele>3.02</ele>
        <time>2016-08-20T11:02:50Z</time>
      </trkpt>
      <trkpt lat="49.31375" lon="-0.36457">
        <ele>6.87</ele>
        <time>2016-08-20T11:02:58Z</time>
      </trkpt>
      <trkpt lat="49.3158" lon="-0.36706">
        <ele>7.83</ele>
        <time>2016-08-20T11:03:48Z</time>
      </trkpt>
      <trkpt lat="49.31647" lon="-0.36788">
        <ele>7.35</ele>
        <time>2016-08-20T11:04:08Z</time>
      </trkpt>
      <trkpt lat="49.31669" lon="-0.3681">
        <ele>6.39</ele>
        <time>2016-08-20T11:04:14Z</time>
      </trkpt>
      <trkpt lat="49.31739" lon="-0.36877">
        <ele>7.35</ele>
        <time>2016-08-20T11:04:37Z</time>
      </trkpt>
      <trkpt lat="49.31802" lon="-0.36959">
        <ele>7.35</ele>
        <time>2016-08-20T11:04:56Z</time>
      </trkpt>
      <trkpt lat="49.31978" lon="-0.37323">
        <ele>5.91</ele>
        <time>2016-08-20T11:05:59Z</time>
      </trkpt>
      <trkpt lat="49.32074" lon="-0.37215">
        <ele>5.91</ele>
        <time>2016-08-20T11:06:26Z</time>
      </trkpt>
      <trkpt lat="49.32128" lon="-0.37074">
        <ele>5.91</ele>
        <time>2016-08-20T11:06:46Z</time>
      </trkpt>
      <trkpt lat="49.32172" lon="-0.36952">
        <ele>5.42</ele>
        <time>2016-08-20T11:07:03Z</time>
      </trkpt>
      <trkpt lat="49.32361" lon="-0.37167">
        <ele>3.02</ele>
        <time>2016-08-20T11:08:08Z</time>
      </trkpt>
      <trkpt lat="49.3242" lon="-0.37181">
        <ele>3.5</ele>
        <time>2016-08-20T11:09:04Z</time>
      </trkpt>
      <trkpt lat="49.32545" lon="-0.37117">
        <ele>3.5</ele>
        <time>2016-08-20T11:10:14Z</time>
      </trkpt>
      <trkpt lat="49.32597" lon="-0.37073">
        <ele>3.98</ele>
        <time>2016-08-20T11:11:33Z</time>
      </trkpt>
      <trkpt lat="49.32603" lon="-0.37086">
        <ele>3.5</ele>
        <time>2016-08-20T11:11:38Z</time>
      </trkpt>
      <trkpt lat="49.32626" lon="-0.3715">
        <ele>3.02</ele>
        <time>2016-08-20T11:11:56Z</time>
      </trkpt>
      <trkpt lat="49.32657" lon="-0.37268">
        <ele>1.58</ele>
        <time>2016-08-20T11:12:23Z</time>
      </trkpt>
      <trkpt lat="49.32657" lon="-0.37283">
        <ele>3.98</ele>
        <time>2016-08-20T11:12:56Z</time>
      </trkpt>
      <trkpt lat="49.32613" lon="-0.37328">
        <ele>3.98</ele>
        <time>2016-08-20T11:13:15Z</time>
      </trkpt>
      <trkpt lat="49.32609" lon="-0.37377">
        <ele>5.42</ele>
        <time>2016-08-20T11:13:28Z</time>
      </trkpt>
      <trkpt lat="49.32596" lon="-0.37398">
        <ele>5.91</ele>
        <time>2016-08-20T11:13:45Z</time>
      </trkpt>
      <trkpt lat="49.32597" lon="-0.37415">
        <ele>5.91</ele>
        <time>2016-08-20T11:13:49Z</time>
      </trkpt>
      <trkpt lat="49.32594" lon="-0.37441">
        <ele>5.91</ele>
        <time>2016-08-20T11:13:53Z</time>
      </trkpt>
      <trkpt lat="49.32606" lon="-0.37554">
        <ele>7.83</ele>
        <time>2016-08-20T11:14:13Z</time>
      </trkpt>
      <trkpt lat="49.32622" lon="-0.37734">
        <ele>6.87</ele>
        <time>2016-08-20T11:14:38Z</time>
      </trkpt>
      <trkpt lat="49.32668" lon="-0.38076">
        <ele>6.87</ele>
        <time>2016-08-20T11:15:39Z</time>
      </trkpt>
    </trkseg>
  </trk>
</gpx>